sensor_id;sensor_type;location;lat;lon;timestamp;P1;durP1;ratioP1;P2;durP2;ratioP2
24259;SDS011;12384;48.112;18.418;2023-03-17T00:02:08;12.60;;;11.60;;
24259;SDS011;12384;48.112;18.418;2023-03-17T00:04:37;13.60;;;12.20;;
24259;SDS011;12384;48.112;18.418;2023-03-17T00:07:06;13.40;;;12.30;;
24259;SDS011;12384;48.112;18.418;2023-03-17T00:09:35;14.57;;;13.10;;
24259;SDS011;12384;48.112;18.418;2023-03-17T00:12:07;14.87;;;13.57;;
24259;SDS011;12384;48.112;18.418;2023-03-17T00:14:38;14.80;;;13.37;;
24259;SDS011;12384;48.112;18.418;2023-03-17T00:17:08;14.03;;;12.80;;
24259;SDS011;12384;48.112;18.418;2023-03-17T00:19:38;13.80;;;12.60;;
24259;SDS011;12384;48.112;18.418;2023-03-17T00:22:12;14.50;;;13.27;;
24259;SDS011;12384;48.112;18.418;2023-03-17T00:24:44;14.60;;;13.20;;
24259;SDS011;12384;48.112;18.418;2023-03-17T00:27:12;15.73;;;14.17;;
24259;SDS011;12384;48.112;18.418;2023-03-17T00:29:42;15.13;;;13.50;;
24259;SDS011;12384;48.112;18.418;2023-03-17T00:32:13;14.13;;;12.90;;
24259;SDS011;12384;48.112;18.418;2023-03-17T00:34:43;14.63;;;13.23;;
24259;SDS011;12384;48.112;18.418;2023-03-17T00:37:14;14.43;;;12.97;;
24259;SDS011;12384;48.112;18.418;2023-03-17T00:39:43;14.90;;;13.50;;
24259;SDS011;12384;48.112;18.418;2023-03-17T00:42:11;14.40;;;13.13;;
24259;SDS011;12384;48.112;18.418;2023-03-17T00:44:40;14.23;;;13.03;;
24259;SDS011;12384;48.112;18.418;2023-03-17T00:47:11;15.83;;;14.17;;
24259;SDS011;12384;48.112;18.418;2023-03-17T00:49:39;14.57;;;13.17;;
24259;SDS011;12384;48.112;18.418;2023-03-17T00:52:08;18.07;;;15.77;;
24259;SDS011;12384;48.112;18.418;2023-03-17T00:54:37;17.20;;;15.10;;
24259;SDS011;12384;48.112;18.418;2023-03-17T00:57:07;18.90;;;16.00;;
24259;SDS011;12384;48.112;18.418;2023-03-17T00:59:37;16.10;;;14.50;;
24259;SDS011;12384;48.112;18.418;2023-03-17T01:02:11;15.60;;;13.93;;
24259;SDS011;12384;48.112;18.418;2023-03-17T01:04:40;16.67;;;14.47;;
24259;SDS011;12384;48.112;18.418;2023-03-17T01:07:18;21.87;;;16.23;;
24259;SDS011;12384;48.112;18.418;2023-03-17T01:09:47;16.00;;;14.30;;
24259;SDS011;12384;48.112;18.418;2023-03-17T01:12:16;15.60;;;14.10;;
24259;SDS011;12384;48.112;18.418;2023-03-17T01:14:47;16.23;;;14.40;;
24259;SDS011;12384;48.112;18.418;2023-03-17T01:17:17;17.47;;;15.53;;
24259;SDS011;12384;48.112;18.418;2023-03-17T01:19:46;18.53;;;16.63;;
24259;SDS011;12384;48.112;18.418;2023-03-17T01:22:14;16.83;;;15.03;;
24259;SDS011;12384;48.112;18.418;2023-03-17T01:24:43;16.33;;;14.70;;
24259;SDS011;12384;48.112;18.418;2023-03-17T01:27:13;15.30;;;13.80;;
24259;SDS011;12384;48.112;18.418;2023-03-17T01:29:42;16.23;;;14.73;;
24259;SDS011;12384;48.112;18.418;2023-03-17T01:32:10;19.93;;;17.30;;
24259;SDS011;12384;48.112;18.418;2023-03-17T01:34:40;16.33;;;14.63;;
24259;SDS011;12384;48.112;18.418;2023-03-17T01:37:08;16.30;;;14.70;;
24259;SDS011;12384;48.112;18.418;2023-03-17T01:39:37;17.87;;;15.53;;
24259;SDS011;12384;48.112;18.418;2023-03-17T01:42:06;16.50;;;15.00;;
24259;SDS011;12384;48.112;18.418;2023-03-17T01:47:23;15.50;;;14.03;;
24259;SDS011;12384;48.112;18.418;2023-03-17T01:49:55;15.07;;;13.57;;
24259;SDS011;12384;48.112;18.418;2023-03-17T01:52:26;14.20;;;12.70;;
24259;SDS011;12384;48.112;18.418;2023-03-17T01:54:56;13.43;;;12.13;;
24259;SDS011;12384;48.112;18.418;2023-03-17T01:57:28;14.97;;;13.67;;
24259;SDS011;12384;48.112;18.418;2023-03-17T02:00:01;14.70;;;13.33;;
24259;SDS011;12384;48.112;18.418;2023-03-17T02:02:39;14.40;;;12.90;;
24259;SDS011;12384;48.112;18.418;2023-03-17T02:05:11;14.57;;;13.23;;
24259;SDS011;12384;48.112;18.418;2023-03-17T02:07:42;14.13;;;12.93;;
24259;SDS011;12384;48.112;18.418;2023-03-17T02:10:12;16.53;;;14.93;;
24259;SDS011;12384;48.112;18.418;2023-03-17T02:12:43;15.70;;;14.20;;
24259;SDS011;12384;48.112;18.418;2023-03-17T02:15:14;18.33;;;15.10;;
24259;SDS011;12384;48.112;18.418;2023-03-17T02:17:43;17.40;;;14.83;;
24259;SDS011;12384;48.112;18.418;2023-03-17T02:23:16;15.83;;;14.33;;
24259;SDS011;12384;48.112;18.418;2023-03-17T02:25:48;17.40;;;15.57;;
24259;SDS011;12384;48.112;18.418;2023-03-17T02:28:20;15.60;;;14.10;;
24259;SDS011;12384;48.112;18.418;2023-03-17T02:30:52;15.13;;;13.73;;
24259;SDS011;12384;48.112;18.418;2023-03-17T02:33:21;14.50;;;13.07;;
24259;SDS011;12384;48.112;18.418;2023-03-17T02:35:53;13.97;;;12.53;;
24259;SDS011;12384;48.112;18.418;2023-03-17T02:38:23;14.50;;;13.10;;
24259;SDS011;12384;48.112;18.418;2023-03-17T02:40:52;15.33;;;13.77;;
24259;SDS011;12384;48.112;18.418;2023-03-17T02:43:21;13.10;;;11.80;;
24259;SDS011;12384;48.112;18.418;2023-03-17T02:45:49;13.73;;;12.53;;
24259;SDS011;12384;48.112;18.418;2023-03-17T02:48:18;14.43;;;13.00;;
24259;SDS011;12384;48.112;18.418;2023-03-17T02:50:48;13.23;;;11.93;;
24259;SDS011;12384;48.112;18.418;2023-03-17T02:53:17;13.87;;;12.57;;
24259;SDS011;12384;48.112;18.418;2023-03-17T02:55:46;14.07;;;12.67;;
24259;SDS011;12384;48.112;18.418;2023-03-17T02:58:15;14.43;;;13.13;;
24259;SDS011;12384;48.112;18.418;2023-03-17T03:00:43;15.57;;;14.10;;
24259;SDS011;12384;48.112;18.418;2023-03-17T03:03:12;15.97;;;13.93;;
24259;SDS011;12384;48.112;18.418;2023-03-17T03:05:40;14.53;;;13.03;;
24259;SDS011;12384;48.112;18.418;2023-03-17T03:08:10;14.20;;;12.87;;
24259;SDS011;12384;48.112;18.418;2023-03-17T03:10:38;14.30;;;12.90;;
24259;SDS011;12384;48.112;18.418;2023-03-17T03:13:08;15.70;;;13.67;;
24259;SDS011;12384;48.112;18.418;2023-03-17T03:15:39;15.40;;;13.70;;
24259;SDS011;12384;48.112;18.418;2023-03-17T03:18:08;13.90;;;12.50;;
24259;SDS011;12384;48.112;18.418;2023-03-17T03:20:37;14.67;;;13.30;;
24259;SDS011;12384;48.112;18.418;2023-03-17T03:23:09;15.70;;;14.17;;
24259;SDS011;12384;48.112;18.418;2023-03-17T03:25:38;15.50;;;13.90;;
24259;SDS011;12384;48.112;18.418;2023-03-17T03:28:09;14.63;;;13.33;;
24259;SDS011;12384;48.112;18.418;2023-03-17T03:30:37;14.57;;;13.23;;
24259;SDS011;12384;48.112;18.418;2023-03-17T03:33:10;14.87;;;13.37;;
24259;SDS011;12384;48.112;18.418;2023-03-17T03:35:39;13.13;;;11.97;;
24259;SDS011;12384;48.112;18.418;2023-03-17T03:38:08;14.50;;;13.17;;
24259;SDS011;12384;48.112;18.418;2023-03-17T03:40:38;13.77;;;12.47;;
24259;SDS011;12384;48.112;18.418;2023-03-17T03:43:06;13.20;;;11.90;;
24259;SDS011;12384;48.112;18.418;2023-03-17T03:45:49;14.67;;;13.20;;
24259;SDS011;12384;48.112;18.418;2023-03-17T03:48:18;12.90;;;11.37;;
24259;SDS011;12384;48.112;18.418;2023-03-17T03:50:47;13.03;;;11.73;;
24259;SDS011;12384;48.112;18.418;2023-03-17T03:53:15;13.47;;;12.03;;
24259;SDS011;12384;48.112;18.418;2023-03-17T03:55:44;12.33;;;11.33;;
24259;SDS011;12384;48.112;18.418;2023-03-17T03:58:13;12.43;;;11.33;;
24259;SDS011;12384;48.112;18.418;2023-03-17T04:00:42;13.80;;;12.57;;
24259;SDS011;12384;48.112;18.418;2023-03-17T04:03:10;13.57;;;12.17;;
24259;SDS011;12384;48.112;18.418;2023-03-17T04:05:39;12.97;;;11.70;;
24259;SDS011;12384;48.112;18.418;2023-03-17T04:08:08;12.77;;;11.57;;
24259;SDS011;12384;48.112;18.418;2023-03-17T04:10:37;13.20;;;12.03;;
24259;SDS011;12384;48.112;18.418;2023-03-17T04:13:05;13.63;;;12.27;;
24259;SDS011;12384;48.112;18.418;2023-03-17T04:15:35;12.97;;;11.77;;
24259;SDS011;12384;48.112;18.418;2023-03-17T04:18:04;13.83;;;12.43;;
24259;SDS011;12384;48.112;18.418;2023-03-17T04:20:32;13.77;;;12.47;;
24259;SDS011;12384;48.112;18.418;2023-03-17T04:23:01;13.83;;;12.43;;
24259;SDS011;12384;48.112;18.418;2023-03-17T04:25:29;12.90;;;11.60;;
24259;SDS011;12384;48.112;18.418;2023-03-17T04:27:58;14.43;;;13.13;;
24259;SDS011;12384;48.112;18.418;2023-03-17T04:30:26;14.60;;;13.07;;
24259;SDS011;12384;48.112;18.418;2023-03-17T04:32:56;14.40;;;12.93;;
24259;SDS011;12384;48.112;18.418;2023-03-17T04:35:25;13.40;;;11.83;;
24259;SDS011;12384;48.112;18.418;2023-03-17T04:37:53;15.83;;;12.70;;
24259;SDS011;12384;48.112;18.418;2023-03-17T04:40:22;14.47;;;13.03;;
24259;SDS011;12384;48.112;18.418;2023-03-17T04:42:50;15.43;;;14.03;;
24259;SDS011;12384;48.112;18.418;2023-03-17T04:45:18;14.63;;;13.33;;
24259;SDS011;12384;48.112;18.418;2023-03-17T04:47:47;13.57;;;12.37;;
24259;SDS011;12384;48.112;18.418;2023-03-17T04:50:17;14.40;;;13.13;;
24259;SDS011;12384;48.112;18.418;2023-03-17T04:52:45;14.87;;;13.60;;
24259;SDS011;12384;48.112;18.418;2023-03-17T04:55:14;15.87;;;12.97;;
24259;SDS011;12384;48.112;18.418;2023-03-17T04:57:43;13.77;;;12.37;;
24259;SDS011;12384;48.112;18.418;2023-03-17T05:00:11;13.93;;;12.53;;
24259;SDS011;12384;48.112;18.418;2023-03-17T05:02:41;14.33;;;12.20;;
24259;SDS011;12384;48.112;18.418;2023-03-17T05:05:09;13.27;;;11.97;;
24259;SDS011;12384;48.112;18.418;2023-03-17T05:07:40;14.20;;;12.70;;
24259;SDS011;12384;48.112;18.418;2023-03-17T05:10:10;14.50;;;13.10;;
24259;SDS011;12384;48.112;18.418;2023-03-17T05:12:39;14.93;;;12.50;;
24259;SDS011;12384;48.112;18.418;2023-03-17T05:15:07;15.13;;;13.73;;
24259;SDS011;12384;48.112;18.418;2023-03-17T05:17:36;13.90;;;12.70;;
24259;SDS011;12384;48.112;18.418;2023-03-17T05:20:05;15.20;;;13.73;;
24259;SDS011;12384;48.112;18.418;2023-03-17T05:22:36;13.60;;;12.37;;
24259;SDS011;12384;48.112;18.418;2023-03-17T05:25:06;13.80;;;12.50;;
24259;SDS011;12384;48.112;18.418;2023-03-17T05:27:35;14.20;;;12.90;;
24259;SDS011;12384;48.112;18.418;2023-03-17T05:30:03;12.57;;;11.57;;
24259;SDS011;12384;48.112;18.418;2023-03-17T05:32:32;16.67;;;14.83;;
24259;SDS011;12384;48.112;18.418;2023-03-17T05:35:02;15.97;;;14.37;;
24259;SDS011;12384;48.112;18.418;2023-03-17T05:37:32;15.30;;;13.50;;
24259;SDS011;12384;48.112;18.418;2023-03-17T05:40:01;17.23;;;14.77;;
24259;SDS011;12384;48.112;18.418;2023-03-17T05:42:31;16.17;;;14.67;;
24259;SDS011;12384;48.112;18.418;2023-03-17T05:44:59;17.60;;;14.30;;
24259;SDS011;12384;48.112;18.418;2023-03-17T05:47:28;15.03;;;13.40;;
24259;SDS011;12384;48.112;18.418;2023-03-17T05:49:57;16.90;;;15.40;;
24259;SDS011;12384;48.112;18.418;2023-03-17T05:52:26;15.53;;;14.20;;
24259;SDS011;12384;48.112;18.418;2023-03-17T05:54:55;14.40;;;13.13;;
24259;SDS011;12384;48.112;18.418;2023-03-17T05:57:24;13.30;;;12.10;;
24259;SDS011;12384;48.112;18.418;2023-03-17T05:59:54;13.30;;;12.20;;
24259;SDS011;12384;48.112;18.418;2023-03-17T06:02:22;13.53;;;12.37;;
24259;SDS011;12384;48.112;18.418;2023-03-17T06:04:52;13.13;;;12.03;;
24259;SDS011;12384;48.112;18.418;2023-03-17T06:07:21;14.17;;;12.97;;
24259;SDS011;12384;48.112;18.418;2023-03-17T06:09:50;14.60;;;13.33;;
24259;SDS011;12384;48.112;18.418;2023-03-17T06:12:18;13.77;;;12.50;;
24259;SDS011;12384;48.112;18.418;2023-03-17T06:14:47;13.73;;;12.47;;
24259;SDS011;12384;48.112;18.418;2023-03-17T06:17:16;13.13;;;12.00;;
24259;SDS011;12384;48.112;18.418;2023-03-17T06:19:45;14.07;;;12.87;;
24259;SDS011;12384;48.112;18.418;2023-03-17T06:22:15;44.90;;;34.00;;
24259;SDS011;12384;48.112;18.418;2023-03-17T06:24:43;24.97;;;22.27;;
24259;SDS011;12384;48.112;18.418;2023-03-17T06:27:12;18.17;;;16.43;;
24259;SDS011;12384;48.112;18.418;2023-03-17T06:29:40;15.23;;;13.87;;
24259;SDS011;12384;48.112;18.418;2023-03-17T06:32:09;15.10;;;13.80;;
24259;SDS011;12384;48.112;18.418;2023-03-17T06:34:47;14.20;;;12.90;;
24259;SDS011;12384;48.112;18.418;2023-03-17T06:37:16;14.63;;;13.23;;
24259;SDS011;12384;48.112;18.418;2023-03-17T06:39:45;14.43;;;13.13;;
24259;SDS011;12384;48.112;18.418;2023-03-17T06:42:13;15.13;;;13.70;;
24259;SDS011;12384;48.112;18.418;2023-03-17T06:44:42;15.27;;;13.93;;
24259;SDS011;12384;48.112;18.418;2023-03-17T06:47:10;18.00;;;16.30;;
24259;SDS011;12384;48.112;18.418;2023-03-17T06:49:39;22.10;;;19.77;;
24259;SDS011;12384;48.112;18.418;2023-03-17T06:52:09;21.43;;;19.33;;
24259;SDS011;12384;48.112;18.418;2023-03-17T06:54:39;19.83;;;17.90;;
24259;SDS011;12384;48.112;18.418;2023-03-17T06:57:08;17.43;;;15.73;;
24259;SDS011;12384;48.112;18.418;2023-03-17T06:59:37;15.40;;;14.00;;
24259;SDS011;12384;48.112;18.418;2023-03-17T07:02:08;15.47;;;13.97;;
24259;SDS011;12384;48.112;18.418;2023-03-17T07:04:38;14.30;;;13.00;;
24259;SDS011;12384;48.112;18.418;2023-03-17T07:07:08;24.27;;;21.70;;
24259;SDS011;12384;48.112;18.418;2023-03-17T07:09:37;17.60;;;15.87;;
24259;SDS011;12384;48.112;18.418;2023-03-17T07:12:06;15.93;;;14.53;;
24259;SDS011;12384;48.112;18.418;2023-03-17T07:14:36;13.83;;;12.63;;
24259;SDS011;12384;48.112;18.418;2023-03-17T07:17:04;13.07;;;11.97;;
24259;SDS011;12384;48.112;18.418;2023-03-17T07:19:33;14.30;;;13.00;;
24259;SDS011;12384;48.112;18.418;2023-03-17T07:22:01;12.53;;;11.40;;
24259;SDS011;12384;48.112;18.418;2023-03-17T07:24:31;14.33;;;13.00;;
24259;SDS011;12384;48.112;18.418;2023-03-17T07:27:00;14.63;;;13.33;;
24259;SDS011;12384;48.112;18.418;2023-03-17T07:29:28;21.60;;;19.33;;
24259;SDS011;12384;48.112;18.418;2023-03-17T07:31:59;16.30;;;14.80;;
24259;SDS011;12384;48.112;18.418;2023-03-17T07:34:30;14.57;;;13.27;;
24259;SDS011;12384;48.112;18.418;2023-03-17T07:36:59;14.43;;;13.13;;
24259;SDS011;12384;48.112;18.418;2023-03-17T07:39:28;16.07;;;13.40;;
24259;SDS011;12384;48.112;18.418;2023-03-17T07:41:58;13.57;;;12.47;;
24259;SDS011;12384;48.112;18.418;2023-03-17T07:44:26;18.80;;;16.90;;
24259;SDS011;12384;48.112;18.418;2023-03-17T07:46:56;15.07;;;13.73;;
24259;SDS011;12384;48.112;18.418;2023-03-17T07:49:24;13.23;;;12.23;;
24259;SDS011;12384;48.112;18.418;2023-03-17T07:52:06;12.33;;;11.30;;
24259;SDS011;12384;48.112;18.418;2023-03-17T07:54:35;12.53;;;11.43;;
24259;SDS011;12384;48.112;18.418;2023-03-17T07:57:09;12.80;;;11.73;;
24259;SDS011;12384;48.112;18.418;2023-03-17T07:59:38;12.77;;;11.67;;
24259;SDS011;12384;48.112;18.418;2023-03-17T08:02:10;12.60;;;11.47;;
24259;SDS011;12384;48.112;18.418;2023-03-17T08:04:42;13.40;;;12.30;;
24259;SDS011;12384;48.112;18.418;2023-03-17T08:07:11;12.60;;;11.50;;
24259;SDS011;12384;48.112;18.418;2023-03-17T08:09:41;11.60;;;10.50;;
24259;SDS011;12384;48.112;18.418;2023-03-17T08:12:11;11.27;;;10.27;;
24259;SDS011;12384;48.112;18.418;2023-03-17T08:14:40;13.37;;;12.27;;
24259;SDS011;12384;48.112;18.418;2023-03-17T08:17:08;10.97;;;10.10;;
24259;SDS011;12384;48.112;18.418;2023-03-17T08:19:37;12.17;;;11.17;;
24259;SDS011;12384;48.112;18.418;2023-03-17T08:22:05;12.10;;;11.00;;
24259;SDS011;12384;48.112;18.418;2023-03-17T08:24:34;12.47;;;11.37;;
24259;SDS011;12384;48.112;18.418;2023-03-17T08:27:05;13.00;;;11.80;;
24259;SDS011;12384;48.112;18.418;2023-03-17T08:29:35;11.80;;;10.70;;
24259;SDS011;12384;48.112;18.418;2023-03-17T08:32:04;12.47;;;11.27;;
24259;SDS011;12384;48.112;18.418;2023-03-17T08:34:33;11.73;;;10.83;;
24259;SDS011;12384;48.112;18.418;2023-03-17T08:37:02;11.63;;;10.63;;
24259;SDS011;12384;48.112;18.418;2023-03-17T08:39:30;12.40;;;11.33;;
24259;SDS011;12384;48.112;18.418;2023-03-17T08:41:59;12.70;;;11.70;;
24259;SDS011;12384;48.112;18.418;2023-03-17T08:44:27;12.33;;;11.23;;
24259;SDS011;12384;48.112;18.418;2023-03-17T08:46:57;14.73;;;13.33;;
24259;SDS011;12384;48.112;18.418;2023-03-17T08:49:26;12.70;;;11.70;;
24259;SDS011;12384;48.112;18.418;2023-03-17T08:51:56;13.03;;;11.83;;
24259;SDS011;12384;48.112;18.418;2023-03-17T08:54:25;13.53;;;12.30;;
24259;SDS011;12384;48.112;18.418;2023-03-17T08:56:53;12.67;;;11.57;;
24259;SDS011;12384;48.112;18.418;2023-03-17T08:59:22;12.50;;;11.50;;
24259;SDS011;12384;48.112;18.418;2023-03-17T09:01:50;12.83;;;11.67;;
24259;SDS011;12384;48.112;18.418;2023-03-17T09:04:20;12.77;;;11.67;;
24259;SDS011;12384;48.112;18.418;2023-03-17T09:06:49;12.70;;;11.43;;
24259;SDS011;12384;48.112;18.418;2023-03-17T09:09:28;13.33;;;12.13;;
24259;SDS011;12384;48.112;18.418;2023-03-17T09:11:57;12.10;;;11.10;;
24259;SDS011;12384;48.112;18.418;2023-03-17T09:14:26;12.13;;;11.10;;
24259;SDS011;12384;48.112;18.418;2023-03-17T09:16:58;12.27;;;11.27;;
24259;SDS011;12384;48.112;18.418;2023-03-17T09:19:30;11.90;;;10.90;;
24259;SDS011;12384;48.112;18.418;2023-03-17T09:21:58;12.50;;;11.40;;
24259;SDS011;12384;48.112;18.418;2023-03-17T09:24:28;11.80;;;10.80;;
24259;SDS011;12384;48.112;18.418;2023-03-17T09:26:57;13.70;;;12.30;;
24259;SDS011;12384;48.112;18.418;2023-03-17T09:29:27;15.23;;;11.30;;
24259;SDS011;12384;48.112;18.418;2023-03-17T09:31:55;12.83;;;11.73;;
24259;SDS011;12384;48.112;18.418;2023-03-17T09:34:24;11.97;;;10.87;;
24259;SDS011;12384;48.112;18.418;2023-03-17T09:36:53;12.60;;;11.50;;
24259;SDS011;12384;48.112;18.418;2023-03-17T09:39:23;12.10;;;11.10;;
24259;SDS011;12384;48.112;18.418;2023-03-17T09:41:55;12.37;;;11.23;;
24259;SDS011;12384;48.112;18.418;2023-03-17T09:44:44;12.30;;;11.20;;
24259;SDS011;12384;48.112;18.418;2023-03-17T09:47:31;11.90;;;10.93;;
24259;SDS011;12384;48.112;18.418;2023-03-17T09:50:12;12.23;;;11.27;;
24259;SDS011;12384;48.112;18.418;2023-03-17T09:52:45;11.63;;;10.53;;
24259;SDS011;12384;48.112;18.418;2023-03-17T09:55:20;11.57;;;10.57;;
24259;SDS011;12384;48.112;18.418;2023-03-17T09:57:53;11.13;;;10.23;;
24259;SDS011;12384;48.112;18.418;2023-03-17T10:00:24;11.77;;;10.77;;
24259;SDS011;12384;48.112;18.418;2023-03-17T10:02:55;11.43;;;10.50;;
24259;SDS011;12384;48.112;18.418;2023-03-17T10:05:25;10.87;;;10.07;;
24259;SDS011;12384;48.112;18.418;2023-03-17T10:08:00;10.97;;;9.97;;
24259;SDS011;12384;48.112;18.418;2023-03-17T10:10:56;11.30;;;10.40;;
24259;SDS011;12384;48.112;18.418;2023-03-17T10:13:36;11.07;;;10.27;;
24259;SDS011;12384;48.112;18.418;2023-03-17T10:16:16;10.23;;;9.53;;
24259;SDS011;12384;48.112;18.418;2023-03-17T10:18:48;10.50;;;9.63;;
24259;SDS011;12384;48.112;18.418;2023-03-17T10:21:24;10.90;;;9.90;;
24259;SDS011;12384;48.112;18.418;2023-03-17T10:23:55;10.87;;;9.97;;
24259;SDS011;12384;48.112;18.418;2023-03-17T10:26:25;11.13;;;10.20;;
24259;SDS011;12384;48.112;18.418;2023-03-17T10:28:58;10.00;;;9.30;;
24259;SDS011;12384;48.112;18.418;2023-03-17T10:31:30;10.57;;;9.57;;
24259;SDS011;12384;48.112;18.418;2023-03-17T10:34:06;11.20;;;10.40;;
24259;SDS011;12384;48.112;18.418;2023-03-17T10:36:41;10.40;;;9.50;;
24259;SDS011;12384;48.112;18.418;2023-03-17T10:39:13;12.30;;;11.30;;
24259;SDS011;12384;48.112;18.418;2023-03-17T10:41:51;10.90;;;10.00;;
24259;SDS011;12384;48.112;18.418;2023-03-17T10:44:34;11.10;;;10.20;;
24259;SDS011;12384;48.112;18.418;2023-03-17T10:47:21;11.00;;;10.17;;
24259;SDS011;12384;48.112;18.418;2023-03-17T10:49:58;11.43;;;10.53;;
24259;SDS011;12384;48.112;18.418;2023-03-17T10:52:32;10.97;;;10.03;;
24259;SDS011;12384;48.112;18.418;2023-03-17T10:55:10;10.60;;;9.77;;
24259;SDS011;12384;48.112;18.418;2023-03-17T10:57:47;10.93;;;10.03;;
24259;SDS011;12384;48.112;18.418;2023-03-17T11:00:19;11.10;;;10.10;;
24259;SDS011;12384;48.112;18.418;2023-03-17T11:02:50;10.90;;;10.03;;
24259;SDS011;12384;48.112;18.418;2023-03-17T11:05:24;10.77;;;9.97;;
24259;SDS011;12384;48.112;18.418;2023-03-17T11:08:05;10.43;;;9.63;;
24259;SDS011;12384;48.112;18.418;2023-03-17T11:10:38;10.77;;;9.80;;
24259;SDS011;12384;48.112;18.418;2023-03-17T11:13:07;10.40;;;9.70;;
24259;SDS011;12384;48.112;18.418;2023-03-17T11:15:36;10.23;;;9.50;;
24259;SDS011;12384;48.112;18.418;2023-03-17T11:18:11;10.10;;;9.30;;
24259;SDS011;12384;48.112;18.418;2023-03-17T11:20:45;10.10;;;9.30;;
24259;SDS011;12384;48.112;18.418;2023-03-17T11:23:20;10.43;;;9.40;;
24259;SDS011;12384;48.112;18.418;2023-03-17T11:26:03;10.47;;;9.57;;
24259;SDS011;12384;48.112;18.418;2023-03-17T11:28:43;10.93;;;9.93;;
24259;SDS011;12384;48.112;18.418;2023-03-17T11:31:18;10.57;;;9.70;;
24259;SDS011;12384;48.112;18.418;2023-03-17T11:33:55;11.20;;;10.27;;
24259;SDS011;12384;48.112;18.418;2023-03-17T11:36:39;10.67;;;9.87;;
24259;SDS011;12384;48.112;18.418;2023-03-17T11:39:16;10.67;;;9.87;;
24259;SDS011;12384;48.112;18.418;2023-03-17T11:41:59;11.00;;;10.10;;
24259;SDS011;12384;48.112;18.418;2023-03-17T11:44:56;10.60;;;9.90;;
24259;SDS011;12384;48.112;18.418;2023-03-17T11:48:00;10.03;;;9.23;;
24259;SDS011;12384;48.112;18.418;2023-03-17T11:50:43;9.33;;;8.63;;
24259;SDS011;12384;48.112;18.418;2023-03-17T11:53:33;10.73;;;9.93;;
24259;SDS011;12384;48.112;18.418;2023-03-17T11:56:22;10.87;;;10.00;;
24259;SDS011;12384;48.112;18.418;2023-03-17T11:59:00;10.77;;;9.97;;
24259;SDS011;12384;48.112;18.418;2023-03-17T12:01:33;10.73;;;9.90;;
24259;SDS011;12384;48.112;18.418;2023-03-17T12:04:14;10.63;;;9.83;;
24259;SDS011;12384;48.112;18.418;2023-03-17T12:06:48;11.30;;;10.20;;
24259;SDS011;12384;48.112;18.418;2023-03-17T12:09:24;10.10;;;9.30;;
24259;SDS011;12384;48.112;18.418;2023-03-17T12:11:57;11.00;;;10.00;;
24259;SDS011;12384;48.112;18.418;2023-03-17T12:14:31;11.47;;;10.63;;
24259;SDS011;12384;48.112;18.418;2023-03-17T12:17:05;11.43;;;10.53;;
24259;SDS011;12384;48.112;18.418;2023-03-17T12:19:40;11.27;;;10.47;;
24259;SDS011;12384;48.112;18.418;2023-03-17T12:22:16;11.17;;;10.30;;
24259;SDS011;12384;48.112;18.418;2023-03-17T12:24:50;11.00;;;10.30;;
24259;SDS011;12384;48.112;18.418;2023-03-17T12:27:31;12.73;;;11.60;;
24259;SDS011;12384;48.112;18.418;2023-03-17T12:30:06;12.07;;;11.13;;
24259;SDS011;12384;48.112;18.418;2023-03-17T12:32:47;12.27;;;11.27;;
24259;SDS011;12384;48.112;18.418;2023-03-17T12:35:24;12.30;;;11.50;;
24259;SDS011;12384;48.112;18.418;2023-03-17T12:37:55;12.67;;;11.47;;
24259;SDS011;12384;48.112;18.418;2023-03-17T12:40:29;12.50;;;11.50;;
24259;SDS011;12384;48.112;18.418;2023-03-17T12:43:07;12.03;;;11.13;;
24259;SDS011;12384;48.112;18.418;2023-03-17T12:45:54;12.23;;;10.93;;
24259;SDS011;12384;48.112;18.418;2023-03-17T12:51:43;11.70;;;10.73;;
24259;SDS011;12384;48.112;18.418;2023-03-17T12:54:23;11.20;;;10.37;;
24259;SDS011;12384;48.112;18.418;2023-03-17T12:56:59;11.40;;;10.50;;
24259;SDS011;12384;48.112;18.418;2023-03-17T12:59:29;13.13;;;11.93;;
24259;SDS011;12384;48.112;18.418;2023-03-17T13:02:11;11.23;;;10.47;;
24259;SDS011;12384;48.112;18.418;2023-03-17T13:04:48;11.73;;;10.80;;
24259;SDS011;12384;48.112;18.418;2023-03-17T13:07:23;11.70;;;10.80;;
24259;SDS011;12384;48.112;18.418;2023-03-17T13:10:17;11.77;;;10.97;;
24259;SDS011;12384;48.112;18.418;2023-03-17T13:13:06;12.10;;;11.10;;
24259;SDS011;12384;48.112;18.418;2023-03-17T13:21:33;11.97;;;11.07;;
24259;SDS011;12384;48.112;18.418;2023-03-17T13:26:57;11.87;;;10.87;;
24259;SDS011;12384;48.112;18.418;2023-03-17T13:29:37;11.83;;;11.03;;
24259;SDS011;12384;48.112;18.418;2023-03-17T13:35:14;11.70;;;10.60;;
24259;SDS011;12384;48.112;18.418;2023-03-17T13:40:46;11.17;;;10.30;;
24259;SDS011;12384;48.112;18.418;2023-03-17T13:43:36;11.03;;;10.33;;
24259;SDS011;12384;48.112;18.418;2023-03-17T13:46:23;11.50;;;10.60;;
24259;SDS011;12384;48.112;18.418;2023-03-17T13:48:56;12.37;;;11.47;;
24259;SDS011;12384;48.112;18.418;2023-03-17T13:51:31;11.70;;;10.90;;
24259;SDS011;12384;48.112;18.418;2023-03-17T13:54:07;12.00;;;10.90;;
24259;SDS011;12384;48.112;18.418;2023-03-17T13:56:46;12.20;;;11.30;;
24259;SDS011;12384;48.112;18.418;2023-03-17T13:59:16;12.00;;;11.20;;
24259;SDS011;12384;48.112;18.418;2023-03-17T14:01:50;12.03;;;11.03;;
24259;SDS011;12384;48.112;18.418;2023-03-17T14:04:25;10.80;;;9.90;;
24259;SDS011;12384;48.112;18.418;2023-03-17T14:06:57;11.20;;;10.50;;
24259;SDS011;12384;48.112;18.418;2023-03-17T14:09:35;11.47;;;10.67;;
24259;SDS011;12384;48.112;18.418;2023-03-17T14:12:09;12.20;;;11.00;;
24259;SDS011;12384;48.112;18.418;2023-03-17T14:14:46;13.60;;;12.47;;
24259;SDS011;12384;48.112;18.418;2023-03-17T14:17:18;12.03;;;11.03;;
24259;SDS011;12384;48.112;18.418;2023-03-17T14:20:05;11.93;;;10.90;;
24259;SDS011;12384;48.112;18.418;2023-03-17T14:22:51;11.80;;;10.83;;
24259;SDS011;12384;48.112;18.418;2023-03-17T14:25:21;11.30;;;10.47;;
24259;SDS011;12384;48.112;18.418;2023-03-17T14:27:52;11.17;;;10.37;;
24259;SDS011;12384;48.112;18.418;2023-03-17T14:30:23;10.80;;;10.00;;
24259;SDS011;12384;48.112;18.418;2023-03-17T14:32:55;11.73;;;10.63;;
24259;SDS011;12384;48.112;18.418;2023-03-17T14:35:29;11.53;;;10.70;;
24259;SDS011;12384;48.112;18.418;2023-03-17T14:38:00;11.60;;;10.70;;
24259;SDS011;12384;48.112;18.418;2023-03-17T14:40:30;11.87;;;11.03;;
24259;SDS011;12384;48.112;18.418;2023-03-17T14:43:04;11.00;;;10.30;;
24259;SDS011;12384;48.112;18.418;2023-03-17T14:45:40;10.87;;;10.07;;
24259;SDS011;12384;48.112;18.418;2023-03-17T14:48:15;12.37;;;11.37;;
24259;SDS011;12384;48.112;18.418;2023-03-17T14:50:50;12.63;;;11.53;;
24259;SDS011;12384;48.112;18.418;2023-03-17T14:53:21;11.50;;;10.70;;
24259;SDS011;12384;48.112;18.418;2023-03-17T14:55:51;12.03;;;11.03;;
24259;SDS011;12384;48.112;18.418;2023-03-17T14:58:22;10.87;;;10.27;;
24259;SDS011;12384;48.112;18.418;2023-03-17T15:00:54;12.63;;;11.73;;
24259;SDS011;12384;48.112;18.418;2023-03-17T15:03:28;13.37;;;12.40;;